sensor_id;sensor_type;location;lat;lon;timestamp;pressure;altitude;pressure_sealevel;temperature;humidity
22930;BME280;11630;42.660;23.292;2023-02-04T00:00:38;67868.45;;;2.99;92.45
22930;BME280;11630;42.660;23.292;2023-02-04T00:03:08;67882.74;;;3.10;93.22
22930;BME280;11630;42.660;23.292;2023-02-04T00:05:40;67885.19;;;3.14;94.98
22930;BME280;11630;42.660;23.292;2023-02-04T00:08:10;67867.88;;;2.96;100.00
22930;BME280;11630;42.660;23.292;2023-02-04T00:10:41;67857.89;;;2.88;100.00
22930;BME280;11630;42.660;23.292;2023-02-04T00:13:12;67861.91;;;2.88;100.00
22930;BME280;11630;42.660;23.292;2023-02-04T00:15:43;67869.49;;;2.97;100.00
22930;BME280;11630;42.660;23.292;2023-02-04T00:18:13;67867.88;;;2.96;100.00
22930;BME280;11630;42.660;23.292;2023-02-04T00:20:43;67860.61;;;2.93;100.00
22930;BME280;11630;42.660;23.292;2023-02-04T00:23:14;67826.01;;;2.56;100.00
22930;BME280;11630;42.660;23.292;2023-02-04T00:25:44;67829.53;;;2.60;100.00
22930;BME280;11630;42.660;23.292;2023-02-04T00:28:15;67823.90;;;2.59;100.00
22930;BME280;11630;42.660;23.292;2023-02-04T00:30:46;67833.63;;;2.68;100.00
22930;BME280;11630;42.660;23.292;2023-02-04T00:33:15;67851.67;;;2.81;100.00
22930;BME280;11630;42.660;23.292;2023-02-04T00:35:47;67837.93;;;2.72;100.00
22930;BME280;11630;42.660;23.292;2023-02-04T00:38:17;67843.60;;;2.76;100.00
22930;BME280;11630;42.660;23.292;2023-02-04T00:40:48;67784.21;;;2.21;100.00
22930;BME280;11630;42.660;23.292;2023-02-04T00:43:19;67797.97;;;2.32;100.00
22930;BME280;11630;42.660;23.292;2023-02-04T00:45:50;67819.53;;;2.50;100.00
22930;BME280;11630;42.660;23.292;2023-02-04T00:48:21;67787.97;;;2.22;100.00
22930;BME280;11630;42.660;23.292;2023-02-04T00:50:52;67795.27;;;2.30;100.00
22930;BME280;11630;42.660;23.292;2023-02-04T00:53:22;67824.14;;;2.55;100.00
22930;BME280;11630;42.660;23.292;2023-02-04T00:55:53;67802.00;;;2.35;100.00
22930;BME280;11630;42.660;23.292;2023-02-04T00:58:24;67775.31;;;2.14;100.00
22930;BME280;11630;42.660;23.292;2023-02-04T01:00:55;67779.91;;;2.17;100.00
22930;BME280;11630;42.660;23.292;2023-02-04T01:03:25;67816.30;;;2.47;100.00
22930;BME280;11630;42.660;23.292;2023-02-04T01:05:56;67790.69;;;2.27;100.00
22930;BME280;11630;42.660;23.292;2023-02-04T01:08:27;67762.38;;;2.02;100.00
22930;BME280;11630;42.660;23.292;2023-02-04T01:10:58;67762.61;;;1.99;100.00
22930;BME280;11630;42.660;23.292;2023-02-04T01:13:29;67765.86;;;2.04;100.00
22930;BME280;11630;42.660;23.292;2023-02-04T01:16:00;67772.86;;;2.08;100.00
22930;BME280;11630;42.660;23.292;2023-02-04T01:18:31;67760.98;;;1.97;100.00
22930;BME280;11630;42.660;23.292;2023-02-04T01:21:02;67773.96;;;2.12;100.00
22930;BME280;11630;42.660;23.292;2023-02-04T01:23:33;67777.17;;;2.12;100.00
22930;BME280;11630;42.660;23.292;2023-02-04T01:26:04;67782.05;;;2.19;100.00
22930;BME280;11630;42.660;23.292;2023-02-04T01:28:34;67795.78;;;2.28;100.00
22930;BME280;11630;42.660;23.292;2023-02-04T01:31:05;67808.78;;;2.45;100.00
22930;BME280;11630;42.660;23.292;2023-02-04T01:33:36;67801.74;;;2.36;100.00
22930;BME280;11630;42.660;23.292;2023-02-04T01:36:06;67803.08;;;2.36;100.00
22930;BME280;11630;42.660;23.292;2023-02-04T01:38:36;67811.17;;;2.43;100.00
22930;BME280;11630;42.660;23.292;2023-02-04T01:41:06;67786.92;;;2.26;100.00
22930;BME280;11630;42.660;23.292;2023-02-04T01:43:38;67780.43;;;2.18;100.00
22930;BME280;11630;42.660;23.292;2023-02-04T01:46:10;67749.67;;;1.89;100.00
22930;BME280;11630;42.660;23.292;2023-02-04T01:48:41;67749.12;;;1.86;100.00
22930;BME280;11630;42.660;23.292;2023-02-04T01:51:12;67727.28;;;1.70;100.00
22930;BME280;11630;42.660;23.292;2023-02-04T01:53:46;67738.36;;;1.81;100.00
22930;BME280;11630;42.660;23.292;2023-02-04T01:56:19;67742.35;;;1.79;100.00
22930;BME280;11630;42.660;23.292;2023-02-04T01:58:52;67745.66;;;1.89;100.00
22930;BME280;11630;42.660;23.292;2023-02-04T02:01:41;67742.11;;;1.82;100.00
22930;BME280;11630;42.660;23.292;2023-02-04T02:04:14;67724.55;;;1.62;100.00
22930;BME280;11630;42.660;23.292;2023-02-04T02:06:51;67728.61;;;1.67;100.00
22930;BME280;11630;42.660;23.292;2023-02-04T02:09:19;67713.50;;;1.53;100.00
22930;BME280;11630;42.660;23.292;2023-02-04T02:11:50;67730.26;;;1.71;100.00
22930;BME280;11630;42.660;23.292;2023-02-04T02:14:21;67719.97;;;1.59;100.00
22930;BME280;11630;42.660;23.292;2023-02-04T02:16:51;67704.11;;;1.49;100.00
22930;BME280;11630;42.660;23.292;2023-02-04T02:19:28;67728.33;;;1.66;100.00
22930;BME280;11630;42.660;23.292;2023-02-04T02:24:38;67749.38;;;1.85;100.00
22930;BME280;11630;42.660;23.292;2023-02-04T02:27:10;67734.02;;;1.72;100.00
22930;BME280;11630;42.660;23.292;2023-02-04T02:29:42;67732.91;;;1.69;100.00
22930;BME280;11630;42.660;23.292;2023-02-04T02:32:13;67738.09;;;1.80;100.00
22930;BME280;11630;42.660;23.292;2023-02-04T02:34:44;67735.11;;;1.76;100.00
22930;BME280;11630;42.660;23.292;2023-02-04T02:37:16;67745.34;;;1.83;100.00
22930;BME280;11630;42.660;23.292;2023-02-04T02:39:46;67755.84;;;1.91;100.00
22930;BME280;11630;42.660;23.292;2023-02-04T02:42:17;67741.56;;;1.79;100.00
22930;BME280;11630;42.660;23.292;2023-02-04T02:44:48;67753.42;;;1.90;100.00
22930;BME280;11630;42.660;23.292;2023-02-04T02:47:20;67776.34;;;2.10;100.00
22930;BME280;11630;42.660;23.292;2023-02-04T02:49:52;67762.89;;;2.00;100.00
22930;BME280;11630;42.660;23.292;2023-02-04T02:52:24;67779.61;;;2.16;100.00
22930;BME280;11630;42.660;23.292;2023-02-04T02:54:55;67775.83;;;2.12;100.00
22930;BME280;11630;42.660;23.292;2023-02-04T02:57:26;67787.18;;;2.25;100.00
22930;BME280;11630;42.660;23.292;2023-02-04T02:59:56;67793.34;;;2.25;100.00
22930;BME280;11630;42.660;23.292;2023-02-04T03:02:27;67763.97;;;2.01;100.00
22930;BME280;11630;42.660;23.292;2023-02-04T03:04:59;67768.84;;;2.08;100.00
22930;BME280;11630;42.660;23.292;2023-02-04T03:07:29;67779.35;;;2.17;100.00
22930;BME280;11630;42.660;23.292;2023-02-04T03:10:00;67779.08;;;2.15;100.00
22930;BME280;11630;42.660;23.292;2023-02-04T03:12:31;67771.27;;;2.09;100.00
22930;BME280;11630;42.660;23.292;2023-02-04T03:15:03;67777.19;;;2.15;100.00
22930;BME280;11630;42.660;23.292;2023-02-04T03:17:34;67800.66;;;2.35;100.00
22930;BME280;11630;42.660;23.292;2023-02-04T03:20:08;67776.40;;;2.15;100.00
22930;BME280;11630;42.660;23.292;2023-02-04T03:22:39;67788.83;;;2.29;100.00
22930;BME280;11630;42.660;23.292;2023-02-04T03:25:10;67799.28;;;2.30;100.00
22930;BME280;11630;42.660;23.292;2023-02-04T03:27:41;67761.82;;;2.02;100.00
22930;BME280;11630;42.660;23.292;2023-02-04T03:30:13;67773.64;;;2.08;100.00
22930;BME280;11630;42.660;23.292;2023-02-04T03:32:45;67786.36;;;2.21;100.00
22930;BME280;11630;42.660;23.292;2023-02-04T03:35:15;67800.36;;;2.31;100.00
22930;BME280;11630;42.660;23.292;2023-02-04T03:37:46;67776.66;;;2.14;100.00
22930;BME280;11630;42.660;23.292;2023-02-04T03:40:17;67777.17;;;2.12;100.00
22930;BME280;11630;42.660;23.292;2023-02-04T03:42:47;67791.20;;;2.25;100.00
22930;BME280;11630;42.660;23.292;2023-02-04T03:45:17;67762.65;;;2.04;100.00
22930;BME280;11630;42.660;23.292;2023-02-04T03:47:48;67765.84;;;2.02;100.00
22930;BME280;11630;42.660;23.292;2023-02-04T03:50:19;67758.30;;;1.97;100.00
22930;BME280;11630;42.660;23.292;2023-02-04T03:52:50;67769.61;;;2.05;100.00
22930;BME280;11630;42.660;23.292;2023-02-04T03:55:21;67776.09;;;2.11;100.00
22930;BME280;11630;42.660;23.292;2023-02-04T03:57:52;67787.73;;;2.26;100.00
22930;BME280;11630;42.660;23.292;2023-02-04T04:00:22;67785.55;;;2.21;100.00
22930;BME280;11630;42.660;23.292;2023-02-04T04:02:53;67785.55;;;2.21;100.00
22930;BME280;11630;42.660;23.292;2023-02-04T04:05:23;67777.42;;;2.11;100.00
22930;BME280;11630;42.660;23.292;2023-02-04T04:07:55;67767.77;;;2.07;100.00
22930;BME280;11630;42.660;23.292;2023-02-04T04:10:24;67794.20;;;2.31;100.00
22930;BME280;11630;42.660;23.292;2023-02-04T04:12:56;67800.91;;;2.34;100.00
22930;BME280;11630;42.660;23.292;2023-02-04T04:15:27;67814.44;;;2.49;100.00
22930;BME280;11630;42.660;23.292;2023-02-04T04:17:57;67848.98;;;2.78;100.00
22930;BME280;11630;42.660;23.292;2023-02-04T04:20:28;67901.12;;;3.27;100.00
22930;BME280;11630;42.660;23.292;2023-02-04T04:22:59;67925.70;;;3.51;100.00
22930;BME280;11630;42.660;23.292;2023-02-04T04:25:29;67951.91;;;3.74;100.00
22930;BME280;11630;42.660;23.292;2023-02-04T04:28:00;67980.81;;;3.99;100.00
22930;BME280;11630;42.660;23.292;2023-02-04T04:30:31;68001.38;;;4.21;100.00
22930;BME280;11630;42.660;23.292;2023-02-04T04:33:02;68023.81;;;4.38;100.00
22930;BME280;11630;42.660;23.292;2023-02-04T04:35:33;68032.98;;;4.44;100.00
22930;BME280;11630;42.660;23.292;2023-02-04T04:38:04;68038.41;;;4.53;100.00
22930;BME280;11630;42.660;23.292;2023-02-04T04:40:35;68059.80;;;4.74;100.00
22930;BME280;11630;42.660;23.292;2023-02-04T04:43:05;68063.03;;;4.77;100.00
22930;BME280;11630;42.660;23.292;2023-02-04T04:45:34;68057.63;;;4.72;100.00
22930;BME280;11630;42.660;23.292;2023-02-04T04:48:06;68074.66;;;4.87;100.00
22930;BME280;11630;42.660;23.292;2023-02-04T04:50:36;68072.78;;;4.86;100.00
22930;BME280;11630;42.660;23.292;2023-02-04T04:53:07;68061.94;;;4.74;100.00
22930;BME280;11630;42.660;23.292;2023-02-04T04:55:38;68066.27;;;4.75;100.00
22930;BME280;11630;42.660;23.292;2023-02-04T04:58:09;68060.33;;;4.72;100.00
22930;BME280;11630;42.660;23.292;2023-02-04T05:00:40;68061.68;;;4.75;100.00
22930;BME280;11630;42.660;23.292;2023-02-04T05:03:11;68057.33;;;4.68;100.00
22930;BME280;11630;42.660;23.292;2023-02-04T05:05:42;68047.06;;;4.61;100.00
22930;BME280;11630;42.660;23.292;2023-02-04T05:08:12;68043.31;;;4.60;100.00
22930;BME280;11630;42.660;23.292;2023-02-04T05:10:43;68043.01;;;4.56;100.00
22930;BME280;11630;42.660;23.292;2023-02-04T05:13:13;68037.63;;;4.56;100.00
22930;BME280;11630;42.660;23.292;2023-02-04T05:15:44;68034.36;;;4.51;100.00
22930;BME280;11630;42.660;23.292;2023-02-04T05:18:15;68032.99;;;4.46;100.00
22930;BME280;11630;42.660;23.292;2023-02-04T05:20:46;68029.98;;;4.40;100.00
22930;BME280;11630;42.660;23.292;2023-02-04T05:23:17;68007.05;;;4.25;100.00
22930;BME280;11630;42.660;23.292;2023-02-04T05:25:48;68025.70;;;4.41;100.00
22930;BME280;11630;42.660;23.292;2023-02-04T05:28:19;68006.77;;;4.23;100.00
22930;BME280;11630;42.660;23.292;2023-02-04T05:30:50;67994.90;;;4.15;100.00
22930;BME280;11630;42.660;23.292;2023-02-04T05:33:20;68011.61;;;4.23;100.00
22930;BME280;11630;42.660;23.292;2023-02-04T05:35:51;68011.07;;;4.25;100.00
22930;BME280;11630;42.660;23.292;2023-02-04T05:38:22;68008.70;;;4.29;100.00
22930;BME280;11630;42.660;23.292;2023-02-04T05:40:53;68020.81;;;4.34;100.00
22930;BME280;11630;42.660;23.292;2023-02-04T05:43:25;67999.22;;;4.19;100.00
22930;BME280;11630;42.660;23.292;2023-02-04T05:45:56;67982.99;;;4.04;100.00
22930;BME280;11630;42.660;23.292;2023-02-04T05:48:26;67996.24;;;4.15;100.00
22930;BME280;11630;42.660;23.292;2023-02-04T05:50:58;67982.69;;;3.97;100.00
22930;BME280;11630;42.660;23.292;2023-02-04T05:53:29;67965.66;;;3.83;100.00
22930;BME280;11630;42.660;23.292;2023-02-04T05:56:00;67956.48;;;3.75;100.00
22930;BME280;11630;42.660;23.292;2023-02-04T05:58:30;67956.78;;;3.81;100.00
22930;BME280;11630;42.660;23.292;2023-02-04T06:01:02;67941.11;;;3.64;100.00
22930;BME280;11630;42.660;23.292;2023-02-04T06:03:34;67936.52;;;3.61;100.00
22930;BME280;11630;42.660;23.292;2023-02-04T06:06:05;67938.11;;;3.60;100.00
22930;BME280;11630;42.660;23.292;2023-02-04T06:08:36;67942.99;;;3.67;100.00
22930;BME280;11630;42.660;23.292;2023-02-04T06:11:07;67947.84;;;3.69;100.00
22930;BME280;11630;42.660;23.292;2023-02-04T06:13:38;67950.81;;;3.73;100.00
22930;BME280;11630;42.660;23.292;2023-02-04T06:16:09;67964.06;;;3.84;100.00
22930;BME280;11630;42.660;23.292;2023-02-04T06:18:40;67962.45;;;3.85;100.00
22930;BME280;11630;42.660;23.292;2023-02-04T06:21:11;67977.56;;;3.94;100.00
22930;BME280;11630;42.660;23.292;2023-02-04T06:23:42;67977.03;;;3.96;100.00
22930;BME280;11630;42.660;23.292;2023-02-04T06:26:14;67977.03;;;3.96;100.00
22930;BME280;11630;42.660;23.292;2023-02-04T06:28:47;67982.14;;;3.97;100.00
22930;BME280;11630;42.660;23.292;2023-02-04T06:31:20;67988.67;;;4.08;100.00
22930;BME280;11630;42.660;23.292;2023-02-04T06:33:51;67985.16;;;4.06;100.00
22930;BME280;11630;42.660;23.292;2023-02-04T06:36:22;67995.94;;;4.11;100.00
22930;BME280;11630;42.660;23.292;2023-02-04T06:38:53;68001.64;;;4.20;100.00
22930;BME280;11630;42.660;23.292;2023-02-04T06:41:24;68006.53;;;4.27;100.00
22930;BME280;11630;42.660;23.292;2023-02-04T06:43:54;68007.34;;;4.26;100.00
22930;BME280;11630;42.660;23.292;2023-02-04T06:46:25;68017.58;;;4.31;100.00
22930;BME280;11630;42.660;23.292;2023-02-04T06:48:56;68021.09;;;4.35;100.00
22930;BME280;11630;42.660;23.292;2023-02-04T06:51:27;68046.27;;;4.59;100.00
22930;BME280;11630;42.660;23.292;2023-02-04T06:53:57;68057.33;;;4.68;100.00
22930;BME280;11630;42.660;23.292;2023-02-04T06:56:29;68054.13;;;4.70;99.79
22930;BME280;11630;42.660;23.292;2023-02-04T06:59:00;68067.64;;;4.80;99.10
22930;BME280;11630;42.660;23.292;2023-02-04T07:01:30;68065.45;;;4.76;99.72
22930;BME280;11630;42.660;23.292;2023-02-04T07:04:03;68062.49;;;4.74;100.00
22930;BME280;11630;42.660;23.292;2023-02-04T07:06:34;68062.49;;;4.74;99.52
22930;BME280;11630;42.660;23.292;2023-02-04T07:09:05;68071.95;;;4.84;98.61
22930;BME280;11630;42.660;23.292;2023-02-04T07:11:35;68088.45;;;4.98;98.23
22930;BME280;11630;42.660;23.292;2023-02-04T07:14:06;68107.70;;;5.20;97.14
22930;BME280;11630;42.660;23.292;2023-02-04T07:16:37;68113.64;;;5.23;96.24
22930;BME280;11630;42.660;23.292;2023-02-04T07:19:08;68141.25;;;5.48;95.04
22930;BME280;11630;42.660;23.292;2023-02-04T07:21:39;68139.08;;;5.46;94.33
22930;BME280;11630;42.660;23.292;2023-02-04T07:24:10;68129.59;;;5.36;95.19
22930;BME280;11630;42.660;23.292;2023-02-04T07:26:41;68125.02;;;5.35;95.07
22930;BME280;11630;42.660;23.292;2023-02-04T07:29:12;68133.94;;;5.42;94.39
22930;BME280;11630;42.660;23.292;2023-02-04T07:31:44;68154.22;;;5.57;93.96
22930;BME280;11630;42.660;23.292;2023-02-04T07:34:15;68199.48;;;6.03;92.10
22930;BME280;11630;42.660;23.292;2023-02-04T07:36:45;68189.73;;;5.94;91.05
22930;BME280;11630;42.660;23.292;2023-02-04T07:39:16;68186.22;;;5.89;90.62
22930;BME280;11630;42.660;23.292;2023-02-04T07:41:46;68184.58;;;5.88;90.95
22930;BME280;11630;42.660;23.292;2023-02-04T07:44:17;68180.25;;;5.84;90.88
22930;BME280;11630;42.660;23.292;2023-02-04T07:46:48;68220.08;;;6.21;88.95
22930;BME280;11630;42.660;23.292;2023-02-04T07:49:19;68229.53;;;6.26;88.28
22930;BME280;11630;42.660;23.292;2023-02-04T07:51:50;68245.53;;;6.42;87.92
22930;BME280;11630;42.660;23.292;2023-02-04T07:54:21;68254.73;;;6.51;88.07
22930;BME280;11630;42.660;23.292;2023-02-04T07:56:52;68261.78;;;6.57;87.09
22930;BME280;11630;42.660;23.292;2023-02-04T07:59:23;68213.02;;;6.12;88.34
22930;BME280;11630;42.660;23.292;2023-02-04T08:01:53;68190.55;;;5.96;88.90
22930;BME280;11630;42.660;23.292;2023-02-04T08:04:25;68174.03;;;5.79;89.54
22930;BME280;11630;42.660;23.292;2023-02-04T08:06:56;68162.08;;;5.66;90.10
22930;BME280;11630;42.660;23.292;2023-02-04T08:09:28;68153.42;;;5.60;90.98
22930;BME280;11630;42.660;23.292;2023-02-04T08:11:59;68140.46;;;5.53;90.93
22930;BME280;11630;42.660;23.292;2023-02-04T08:14:30;68151.52;;;5.55;91.17
22930;BME280;11630;42.660;23.292;2023-02-04T08:17:00;68133.67;;;5.41;92.02
22930;BME280;11630;42.660;23.292;2023-02-04T08:19:31;68132.57;;;5.37;92.08
22930;BME280;11630;42.660;23.292;2023-02-04T08:22:02;68115.52;;;5.23;93.10
22930;BME280;11630;42.660;23.292;2023-02-04T08:24:33;68112.83;;;5.23;93.42
22930;BME280;11630;42.660;23.292;2023-02-04T08:27:05;68127.41;;;5.31;93.24
22930;BME280;11630;42.660;23.292;2023-02-04T08:29:35;68135.82;;;5.43;92.89
22930;BME280;11630;42.660;23.292;2023-02-04T08:32:06;68127.44;;;5.34;92.73
22930;BME280;11630;42.660;23.292;2023-02-04T08:34:38;68116.34;;;5.25;92.93
22930;BME280;11630;42.660;23.292;2023-02-04T08:37:08;68115.83;;;5.27;93.71
22930;BME280;11630;42.660;23.292;2023-02-04T08:39:39;68112.57;;;5.24;94.29
22930;BME280;11630;42.660;23.292;2023-02-04T08:42:12;68125.53;;;5.31;94.92
22930;BME280;11630;42.660;23.292;2023-02-04T08:44:43;68123.41;;;5.34;95.90
22930;BME280;11630;42.660;23.292;2023-02-04T08:47:13;68110.64;;;5.19;97.15
22930;BME280;11630;42.660;23.292;2023-02-04T08:49:44;68101.45;;;5.10;98.08
22930;BME280;11630;42.660;23.292;2023-02-04T08:52:15;68095.49;;;5.05;98.50
22930;BME280;11630;42.660;23.292;2023-02-04T08:54:46;68091.97;;;5.00;99.79
22930;BME280;11630;42.660;23.292;2023-02-04T08:57:17;68087.10;;;4.98;100.00
22930;BME280;11630;42.660;23.292;2023-02-04T08:59:48;68079.79;;;4.90;100.00
22930;BME280;11630;42.660;23.292;2023-02-04T09:02:19;68076.30;;;4.88;100.00
22930;BME280;11630;42.660;23.292;2023-02-04T09:04:50;68074.38;;;4.85;100.00
22930;BME280;11630;42.660;23.292;2023-02-04T09:07:20;68096.02;;;5.03;100.00
22930;BME280;11630;42.660;23.292;2023-02-04T09:09:51;68084.66;;;4.95;99.77
22930;BME280;11630;42.660;23.292;2023-02-04T09:12:22;68106.59;;;5.16;97.97
22930;BME280;11630;42.660;23.292;2023-02-04T09:14:53;68127.71;;;5.35;95.62
22930;BME280;11630;42.660;23.292;2023-02-04T09:17:24;68124.96;;;5.28;95.36
22930;BME280;11630;42.660;23.292;2023-02-04T09:19:55;68116.62;;;5.27;95.60
22930;BME280;11630;42.660;23.292;2023-02-04T09:22:25;68132.29;;;5.38;94.68
22930;BME280;11630;42.660;23.292;2023-02-04T09:24:56;68137.99;;;5.45;93.80
22930;BME280;11630;42.660;23.292;2023-02-04T09:27:27;68136.89;;;5.41;93.48
22930;BME280;11630;42.660;23.292;2023-02-04T09:29:58;68140.12;;;5.42;93.08
22930;BME280;11630;42.660;23.292;2023-02-04T09:32:28;68140.70;;;5.50;93.46
22930;BME280;11630;42.660;23.292;2023-02-04T09:34:59;68132.05;;;5.42;94.57
22930;BME280;11630;42.660;23.292;2023-02-04T09:37:30;68132.58;;;5.40;96.13
22930;BME280;11630;42.660;23.292;2023-02-04T09:40:01;68104.16;;;5.13;98.08
22930;BME280;11630;42.660;23.292;2023-02-04T09:42:32;68096.58;;;5.06;98.31
22930;BME280;11630;42.660;23.292;2023-02-04T09:45:03;68081.96;;;4.92;99.71
22930;BME280;11630;42.660;23.292;2023-02-04T09:47:34;68091.47;;;5.07;100.00
22930;BME280;11630;42.660;23.292;2023-02-04T09:50:08;68089.83;;;5.01;100.00
22930;BME280;11630;42.660;23.292;2023-02-04T09:52:37;68073.06;;;4.90;100.00
22930;BME280;11630;42.660;23.292;2023-02-04T09:55:16;68095.48;;;5.02;100.00
22930;BME280;11630;42.660;23.292;2023-02-04T09:57:46;68087.92;;;4.98;100.00
22930;BME280;11630;42.660;23.292;2023-02-04T10:00:25;68079.79;;;4.90;100.00
22930;BME280;11630;42.660;23.292;2023-02-04T10:02:49;68079.56;;;4.94;100.00
22930;BME280;11630;42.660;23.292;2023-02-04T10:05:24;68083.05;;;4.93;100.00
22930;BME280;11630;42.660;23.292;2023-02-04T10:07:52;68099.55;;;5.10;100.00
22930;BME280;11630;42.660;23.292;2023-02-04T10:10:24;68091.17;;;5.01;100.00
22930;BME280;11630;42.660;23.292;2023-02-04T10:12:56;68101.45;;;5.10;100.00
22930;BME280;11630;42.660;23.292;2023-02-04T10:15:27;68098.45;;;5.06;100.00
22930;BME280;11630;42.660;23.292;2023-02-04T10:18:02;68099.55;;;5.10;100.00
22930;BME280;11630;42.660;23.292;2023-02-04T10:20:33;68089.53;;;4.99;100.00
22930;BME280;11630;42.660;23.292;2023-02-04T10:23:04;68089.78;;;4.96;100.00
22930;BME280;11630;42.660;23.292;2023-02-04T10:25:37;68079.00;;;4.91;100.00
22930;BME280;11630;42.660;23.292;2023-02-04T10:28:08;68085.22;;;4.95;100.00
22930;BME280;11630;42.660;23.292;2023-02-04T10:30:41;68090.08;;;4.97;100.00
22930;BME280;11630;42.660;23.292;2023-02-04T10:33:14;68083.05;;;4.93;100.00
22930;BME280;11630;42.660;23.292;2023-02-04T10:35:46;68093.58;;;5.02;100.00
22930;BME280;11630;42.660;23.292;2023-02-04T10:38:20;68078.98;;;4.88;100.00
22930;BME280;11630;42.660;23.292;2023-02-04T10:41:05;68081.17;;;4.93;100.00
22930;BME280;11630;42.660;23.292;2023-02-04T10:43:32;68067.12;;;4.82;100.00
22930;BME280;11630;42.660;23.292;2023-02-04T10:46:03;68061.95;;;4.76;100.00
22930;BME280;11630;42.660;23.292;2023-02-04T10:48:40;68055.73;;;4.69;100.00
22930;BME280;11630;42.660;23.292;2023-02-04T10:51:13;68061.41;;;4.73;100.00
22930;BME280;11630;42.660;23.292;2023-02-04T10:53:44;68062.49;;;4.74;100.00
22930;BME280;11630;42.660;23.292;2023-02-04T10:56:31;68065.20;;;4.79;100.00
22930;BME280;11630;42.660;23.292;2023-02-04T10:59:02;68074.13;;;4.86;100.00
22930;BME280;11630;42.660;23.292;2023-02-04T11:01:33;68093.56;;;4.99;100.00
22930;BME280;11630;42.660;23.292;2023-02-04T11:04:08;68086.82;;;4.94;100.00
22930;BME280;11630;42.660;23.292;2023-02-04T11:06:36;68081.44;;;4.94;100.00
22930;BME280;11630;42.660;23.292;2023-02-04T11:09:12;68094.14;;;5.02;100.00
22930;BME280;11630;42.660;23.292;2023-02-04T11:11:47;68090.88;;;4.99;100.00
22930;BME280;11630;42.660;23.292;2023-02-04T11:14:27;68099.80;;;5.06;100.00
22930;BME280;11630;42.660;23.292;2023-02-04T11:16:56;68085.23;;;4.98;100.00
22930;BME280;11630;42.660;23.292;2023-02-04T11:19:38;68096.30;;;5.04;100.00
22930;BME280;11630;42.660;23.292;2023-02-04T11:22:20;68113.64;;;5.23;100.00
22930;BME280;11630;42.660;23.292;2023-02-04T11:24:51;68112.83;;;5.23;100.00
22930;BME280;11630;42.660;23.292;2023-02-04T11:27:35;68106.59;;;5.16;100.00
22930;BME280;11630;42.660;23.292;2023-02-04T11:30:03;68117.40;;;5.24;100.00
22930;BME280;11630;42.660;23.292;2023-02-04T11:32:35;68090.36;;;5.01;100.00
22930;BME280;11630;42.660;23.292;2023-02-04T11:35:20;68080.88;;;4.91;100.00
22930;BME280;11630;42.660;23.292;2023-02-04T11:37:53;68092.53;;;5.03;100.00
22930;BME280;11630;42.660;23.292;2023-02-04T11:40:34;68098.20;;;5.10;100.00
22930;BME280;11630;42.660;23.292;2023-02-04T11:43:14;68093.62;;;5.04;100.00
22930;BME280;11630;42.660;23.292;2023-02-04T11:45:46;68077.91;;;4.87;100.00
22930;BME280;11630;42.660;23.292;2023-02-04T11:48:20;68088.42;;;4.93;100.00
22930;BME280;11630;42.660;23.292;2023-02-04T11:51:01;68093.05;;;5.01;100.00
22930;BME280;11630;42.660;23.292;2023-02-04T11:53:32;68103.08;;;5.14;100.00
22930;BME280;11630;42.660;23.292;2023-02-04T11:56:03;68094.67;;;5.03;100.00
22930;BME280;11630;42.660;23.292;2023-02-04T11:58:33;68099.30;;;5.13;100.00
22930;BME280;11630;42.660;23.292;2023-02-04T12:01:05;68094.68;;;5.05;100.00
22930;BME280;11630;42.660;23.292;2023-02-04T12:03:44;68090.63;;;5.00;100.00
22930;BME280;11630;42.660;23.292;2023-02-04T12:06:08;68083.31;;;4.95;100.00
22930;BME280;11630;42.660;23.292;2023-02-04T12:08:40;68091.42;;;4.97;100.00
22930;BME280;11630;42.660;23.292;2023-02-04T12:11:23;68089.55;;;5.02;100.00
22930;BME280;11630;42.660;23.292;2023-02-04T12:13:54;68074.69;;;4.89;100.00
22930;BME280;11630;42.660;23.292;2023-02-04T12:16:23;68064.38;;;4.77;100.00
22930;BME280;11630;42.660;23.292;2023-02-04T12:18:54;68063.58;;;4.75;100.00
22930;BME280;11630;42.660;23.292;2023-02-04T12:21:25;68065.98;;;4.76;100.00
22930;BME280;11630;42.660;23.292;2023-02-04T12:23:55;68067.12;;;4.82;100.00
22930;BME280;11630;42.660;23.292;2023-02-04T12:26:26;68071.70;;;4.85;100.00
22930;BME280;11630;42.660;23.292;2023-02-04T12:28:57;68072.22;;;4.83;100.00
22930;BME280;11630;42.660;23.292;2023-02-04T12:31:28;68085.75;;;4.96;100.00
22930;BME280;11630;42.660;23.292;2023-02-04T12:34:00;68081.14;;;4.90;100.00
22930;BME280;11630;42.660;23.292;2023-02-04T12:36:31;68069.52;;;4.81;100.00
22930;BME280;11630;42.660;23.292;2023-02-04T12:39:01;68087.64;;;4.96;100.00
22930;BME280;11630;42.660;23.292;2023-02-04T12:41:32;68078.73;;;4.89;100.00
22930;BME280;11630;42.660;23.292;2023-02-04T12:44:03;68081.70;;;4.93;100.00
22930;BME280;11630;42.660;23.292;2023-02-04T12:46:34;68092.53;;;5.03;100.00
22930;BME280;11630;42.660;23.292;2023-02-04T12:49:05;68083.56;;;4.91;100.00
22930;BME280;11630;42.660;23.292;2023-02-04T12:51:36;68106.86;;;5.15;100.00
22930;BME280;11630;42.660;23.292;2023-02-04T12:54:07;68106.34;;;5.17;100.00
22930;BME280;11630;42.660;23.292;2023-02-04T12:56:38;68104.16;;;5.15;100.00
22930;BME280;11630;42.660;23.292;2023-02-04T12:59:08;68121.23;;;5.32;100.00
22930;BME280;11630;42.660;23.292;2023-02-04T13:01:39;68120.39;;;5.28;100.00
22930;BME280;11630;42.660;23.292;2023-02-04T13:04:11;68147.44;;;5.50;100.00
22930;BME280;11630;42.660;23.292;2023-02-04T13:06:43;68127.44;;;5.34;100.00
22930;BME280;11630;42.660;23.292;2023-02-04T13:09:14;68122.02;;;5.29;100.00
22930;BME280;11630;42.660;23.292;2023-02-04T13:11:45;68100.38;;;5.12;100.00
22930;BME280;11630;42.660;23.292;2023-02-04T13:14:15;68099.30;;;5.11;100.00
22930;BME280;11630;42.660;23.292;2023-02-04T13:16:46;68090.63;;;5.00;100.00